CDVK1: Caney River Near Cedar Vale, KS

Data processed at Thu May 23 2019 23:50


All information presented herein is the property of the government of the United States of America and may be revised or deleted at any time without prior notice.
Dissemination of this information without the expressed written consent of the Public Affairs Office, Tulsa District U.S. Army Corps of Engineers is strictly prohibited.
These data are gathered electronically and, as presented, have not undergone any form of quality control. These data are not guaranteed to be valid or correct.
Go to home page.
Go to station list.
Go to home page.

Upstream stations:

Downstream station:
Previous Day
Next Day
Current Day
    
SHEF ID:       CDVK1     CANEY R NR CEDAR VALE, KS
STATION TYPE:  
Regulating: Stage =    20.00, Flow =     8318

               PRECIP     STAGE  RIV-FLOW   VOLTAGE  BAT-LOAD
                   in        ft       cfs      volt      volt
              Ccp-Rev   Ccp-Rev   Ccp-Rev   Ccp-Rev   Ccp-Rev
(US/Central)
05/23 00:00      0.00     14.77      2870     12.81     12.65
05/23 01:00      0.00     14.71      2811     12.73     12.65
05/23 02:00      0.01     14.65      2752     12.73     12.65
05/23 03:00      0.00     14.61      2714     12.73     12.65
05/23 04:00      0.00     14.58      2687     12.73     12.65
05/23 05:00      0.00     14.54      2652     12.73     12.57
05/23 06:00      0.00     14.49      2608     12.73     12.57
05/23 07:00      0.00     14.48      2599     12.73     12.57
05/23 08:00      0.01     14.46      2582     12.73     12.57
05/23 09:00      0.00     14.43      2556     12.73     12.57
05/23 10:00      0.00     14.42      2548     12.73     12.57
05/23 11:00      0.00     14.40      2530     12.73     12.57
05/23 12:00      0.00     14.40      2530     12.89     12.65
05/23 13:00      0.00     14.39      2522     13.21     12.73
05/23 14:00      0.00     14.36      2496     13.29     13.05
05/23 15:00      0.00     14.31      2453     13.29     13.13
05/23 16:00      0.00     14.29      2436     13.29     13.21
05/23 17:00      0.00     14.28      2428     13.21     13.21
05/23 18:00      0.00     14.27      2419     13.13     13.05
05/23 19:00      0.00     14.25      2402     13.05     12.97
05/23 20:00      0.00     14.25      2402     12.89     12.89
05/23 21:00      0.00     14.23      2385     12.81     12.73
05/23 22:00      0.00     14.23      2385     12.81     12.73
05/23 23:00      0.00     14.21      2368     12.81     12.65